Wheeler Observed Data For Previous 48 Hours

Caption
Day and Hour Reservoir Elevation (behind dam)* Tailwater Elevation (below dam)* Average Hourly Discharge*
9/20/2018 1 AM CDT 555.03 507.13 19,351
9/20/2018 2 AM CDT 555.03 507.22 19,036
9/20/2018 3 AM CDT 555.02 507.21 19,138
9/20/2018 4 AM CDT 555.04 507.27 19,129
9/20/2018 5 AM CDT 555.04 507.32 19,078
9/20/2018 6 AM CDT 555.03 507.31 19,180
9/20/2018 7 AM CDT 555.01 507.33 19,094
9/20/2018 8 AM CDT 555.00 507.37 19,129
9/20/2018 9 AM CDT 554.98 507.42 19,131
9/20/2018 10 AM CDT 554.93 507.43 19,208
9/20/2018 11 AM CDT 554.91 507.60 37,499
9/20/2018 12 PM CDT 554.87 507.81 56,405
9/20/2018 1 PM CDT 554.76 508.17 70,690
9/20/2018 2 PM CDT 554.63 508.19 95,265
9/20/2018 3 PM CDT 554.57 508.15 95,712
9/20/2018 4 PM CDT 554.50 508.21 95,675
9/20/2018 5 PM CDT 554.40 508.18 95,555
9/20/2018 6 PM CDT 554.29 508.14 95,193
9/20/2018 7 PM CDT 554.29 508.03 82,902
9/20/2018 8 PM CDT 554.31 507.75 60,111
9/20/2018 9 PM CDT 554.36 507.43 38,427
9/20/2018 10 PM CDT 554.43 507.26 19,891
9/20/2018 11 PM CDT 554.45 507.22 19,234
9/21/2018 12 AM CDT 554.46 507.27 19,353
9/21/2018 1 AM CDT 554.48 507.34 19,317
9/21/2018 2 AM CDT 554.48 507.31 19,304
9/21/2018 3 AM CDT 554.48 507.35 19,323
9/21/2018 4 AM CDT 554.48 507.37 19,323
9/21/2018 5 AM CDT 554.49 507.34 19,350
9/21/2018 6 AM CDT 554.51 507.36 19,410
9/21/2018 7 AM CDT 554.51 507.39 19,396
9/21/2018 8 AM CDT 554.53 507.37 19,392
9/21/2018 9 AM CDT 554.54 507.33 19,391
9/21/2018 10 AM CDT 554.55 507.44 19,452
9/21/2018 11 AM CDT 554.51 507.53 38,196
9/21/2018 12 PM CDT 554.45 508.22 61,860
9/21/2018 1 PM CDT 554.41 508.07 82,347
9/21/2018 2 PM CDT 554.32 508.19 94,715
9/21/2018 3 PM CDT 554.29 508.21 95,002
9/21/2018 4 PM CDT 554.29 508.19 95,181
9/21/2018 5 PM CDT 554.09 508.10 95,261
9/21/2018 6 PM CDT 554.06 507.93 83,016
9/21/2018 7 PM CDT 554.10 507.84 60,167
9/21/2018 8 PM CDT 554.16 507.67 38,063
9/21/2018 9 PM CDT 554.22 507.36 19,735
9/21/2018 10 PM CDT 554.23 507.38 19,016
9/21/2018 11 PM CDT 554.26 507.44 19,066
9/22/2018 12 AM CDT 554.30 507.44 18,958
9/22/2018 1 AM CDT 554.36 507.48 18,847
9/22/2018 2 AM CDT 554.41 507.48 18,819
9/22/2018 3 AM CDT 554.44 507.50 18,733

Elevations are in feet above sea level. Discharges are in cubic feet per second and are reported at the end of the hour.